sensor_id;sensor_type;location;lat;lon;timestamp;pressure;altitude;pressure_sealevel;temperature;humidity
51239;BME280;38154;47.548;18.828;2023-05-27T00:01:12;99085.38;;;15.81;100.00
51239;BME280;38154;47.548;18.828;2023-05-27T00:03:38;99076.66;;;15.77;100.00
51239;BME280;38154;47.548;18.828;2023-05-27T00:06:05;99089.94;;;15.65;100.00
51239;BME280;38154;47.548;18.828;2023-05-27T00:08:31;99085.69;;;15.54;100.00
51239;BME280;38154;47.548;18.828;2023-05-27T00:10:57;99076.94;;;15.55;100.00
51239;BME280;38154;47.548;18.828;2023-05-27T00:13:23;99073.50;;;15.50;100.00
51239;BME280;38154;47.548;18.828;2023-05-27T00:15:48;99080.63;;;15.42;100.00
51239;BME280;38154;47.548;18.828;2023-05-27T00:18:15;99079.72;;;15.43;100.00
51239;BME280;38154;47.548;18.828;2023-05-27T00:20:41;99074.59;;;15.34;100.00
51239;BME280;38154;47.548;18.828;2023-05-27T00:23:07;99070.28;;;15.28;100.00
51239;BME280;38154;47.548;18.828;2023-05-27T00:25:33;99079.16;;;15.18;100.00
51239;BME280;38154;47.548;18.828;2023-05-27T00:27:59;99084.50;;;15.13;100.00
51239;BME280;38154;47.548;18.828;2023-05-27T00:30:25;99079.34;;;15.04;100.00
51239;BME280;38154;47.548;18.828;2023-05-27T00:32:51;99074.25;;;14.92;100.00
51239;BME280;38154;47.548;18.828;2023-05-27T00:35:17;99069.03;;;14.87;100.00
51239;BME280;38154;47.548;18.828;2023-05-27T00:37:42;99072.69;;;14.74;100.00
51239;BME280;38154;47.548;18.828;2023-05-27T00:40:10;99077.13;;;14.67;100.00
51239;BME280;38154;47.548;18.828;2023-05-27T00:42:37;99072.78;;;14.64;100.00
51239;BME280;38154;47.548;18.828;2023-05-27T00:45:03;99061.44;;;14.59;100.00
51239;BME280;38154;47.548;18.828;2023-05-27T00:47:31;99072.00;;;14.52;100.00
51239;BME280;38154;47.548;18.828;2023-05-27T00:49:58;99069.34;;;14.56;100.00
51239;BME280;38154;47.548;18.828;2023-05-27T00:52:24;99064.97;;;14.57;100.00
51239;BME280;38154;47.548;18.828;2023-05-27T00:54:51;99057.97;;;14.60;100.00
51239;BME280;38154;47.548;18.828;2023-05-27T00:57:19;99062.34;;;14.61;100.00
51239;BME280;38154;47.548;18.828;2023-05-27T00:59:45;99068.31;;;14.71;100.00
51239;BME280;38154;47.548;18.828;2023-05-27T01:02:11;99058.69;;;14.75;100.00
51239;BME280;38154;47.548;18.828;2023-05-27T01:04:37;99061.19;;;14.84;100.00
51239;BME280;38154;47.548;18.828;2023-05-27T01:07:25;99063.81;;;14.86;100.00
51239;BME280;38154;47.548;18.828;2023-05-27T01:09:55;99066.41;;;14.89;100.00
51239;BME280;38154;47.548;18.828;2023-05-27T01:12:31;99054.13;;;14.91;100.00
51239;BME280;38154;47.548;18.828;2023-05-27T01:15:02;99055.94;;;14.86;100.00
51239;BME280;38154;47.548;18.828;2023-05-27T01:17:32;99062.03;;;14.88;100.00
51239;BME280;38154;47.548;18.828;2023-05-27T01:20:01;99058.53;;;14.87;100.00
51239;BME280;38154;47.548;18.828;2023-05-27T01:22:29;99061.22;;;14.82;100.00
51239;BME280;38154;47.548;18.828;2023-05-27T01:24:55;99057.75;;;14.79;100.00
51239;BME280;38154;47.548;18.828;2023-05-27T01:27:21;99061.28;;;14.76;100.00
51239;BME280;38154;47.548;18.828;2023-05-27T01:29:51;99048.13;;;14.76;100.00
51239;BME280;38154;47.548;18.828;2023-05-27T01:32:30;99058.72;;;14.72;100.00
51239;BME280;38154;47.548;18.828;2023-05-27T01:37:33;99055.28;;;14.65;100.00
51239;BME280;38154;47.548;18.828;2023-05-27T01:40:00;99043.91;;;14.64;100.00
51239;BME280;38154;47.548;18.828;2023-05-27T01:42:26;99055.34;;;14.60;100.00
51239;BME280;38154;47.548;18.828;2023-05-27T01:44:54;99046.56;;;14.58;100.00
51239;BME280;38154;47.548;18.828;2023-05-27T01:47:22;99044.84;;;14.56;100.00
51239;BME280;38154;47.548;18.828;2023-05-27T01:49:47;99054.47;;;14.55;100.00
51239;BME280;38154;47.548;18.828;2023-05-27T01:52:13;99051.03;;;14.52;100.00
51239;BME280;38154;47.548;18.828;2023-05-27T01:54:39;99051.94;;;14.44;100.00
51239;BME280;38154;47.548;18.828;2023-05-27T01:57:06;99047.63;;;14.40;100.00
51239;BME280;38154;47.548;18.828;2023-05-27T01:59:32;99040.69;;;14.36;100.00
51239;BME280;38154;47.548;18.828;2023-05-27T02:01:58;99045.81;;;14.47;100.00
51239;BME280;38154;47.548;18.828;2023-05-27T02:04:24;99044.97;;;14.43;100.00
51239;BME280;38154;47.548;18.828;2023-05-27T02:06:50;99040.59;;;14.42;100.00
51239;BME280;38154;47.548;18.828;2023-05-27T02:09:16;99045.03;;;14.37;100.00
51239;BME280;38154;47.548;18.828;2023-05-27T02:11:42;99041.44;;;14.46;100.00
51239;BME280;38154;47.548;18.828;2023-05-27T02:14:08;99047.56;;;14.50;100.00
51239;BME280;38154;47.548;18.828;2023-05-27T02:16:34;99047.56;;;14.48;100.00
51239;BME280;38154;47.548;18.828;2023-05-27T02:19:00;99045.00;;;14.42;100.00
51239;BME280;38154;47.548;18.828;2023-05-27T02:21:26;99057.25;;;14.40;100.00
51239;BME280;38154;47.548;18.828;2023-05-27T02:23:52;99049.44;;;14.35;100.00
51239;BME280;38154;47.548;18.828;2023-05-27T02:26:18;99050.31;;;14.33;100.00
51239;BME280;38154;47.548;18.828;2023-05-27T02:28:44;99048.63;;;14.25;100.00
51239;BME280;38154;47.548;18.828;2023-05-27T02:31:10;99048.63;;;14.27;100.00
51239;BME280;38154;47.548;18.828;2023-05-27T02:33:36;99059.97;;;14.29;100.00
51239;BME280;38154;47.548;18.828;2023-05-27T02:36:01;99056.47;;;14.30;100.00
51239;BME280;38154;47.548;18.828;2023-05-27T02:38:27;99056.44;;;14.36;100.00
51239;BME280;38154;47.548;18.828;2023-05-27T02:40:53;99054.72;;;14.29;100.00
51239;BME280;38154;47.548;18.828;2023-05-27T02:43:19;99060.91;;;14.23;100.00
51239;BME280;38154;47.548;18.828;2023-05-27T02:45:45;99056.59;;;14.16;100.00
51239;BME280;38154;47.548;18.828;2023-05-27T02:48:11;99060.94;;;14.17;100.00
51239;BME280;38154;47.548;18.828;2023-05-27T02:50:37;99061.91;;;14.10;100.00
51239;BME280;38154;47.548;18.828;2023-05-27T02:53:03;99056.69;;;14.04;100.00
51239;BME280;38154;47.548;18.828;2023-05-27T02:55:29;99053.22;;;14.00;100.00
51239;BME280;38154;47.548;18.828;2023-05-27T02:57:54;99051.59;;;13.84;100.00
51239;BME280;38154;47.548;18.828;2023-05-27T03:00:20;99053.47;;;13.71;100.00
51239;BME280;38154;47.548;18.828;2023-05-27T03:02:47;99057.00;;;13.62;100.00
51239;BME280;38154;47.548;18.828;2023-05-27T03:05:13;99057.91;;;13.57;100.00
51239;BME280;38154;47.548;18.828;2023-05-27T03:07:39;99056.16;;;13.57;100.00
51239;BME280;38154;47.548;18.828;2023-05-27T03:10:07;99056.13;;;13.60;100.00
51239;BME280;38154;47.548;18.828;2023-05-27T03:12:33;99060.50;;;13.64;100.00
51239;BME280;38154;47.548;18.828;2023-05-27T03:14:59;99057.88;;;13.66;100.00
51239;BME280;38154;47.548;18.828;2023-05-27T03:17:26;99063.06;;;13.69;100.00
51239;BME280;38154;47.548;18.828;2023-05-27T03:19:52;99060.41;;;13.73;100.00
51239;BME280;38154;47.548;18.828;2023-05-27T03:22:18;99063.00;;;13.83;100.00
51239;BME280;38154;47.548;18.828;2023-05-27T03:24:44;99057.75;;;13.80;100.00
51239;BME280;38154;47.548;18.828;2023-05-27T03:27:10;99070.87;;;13.80;100.00
51239;BME280;38154;47.548;18.828;2023-05-27T03:29:36;99067.41;;;13.78;100.00
51239;BME280;38154;47.548;18.828;2023-05-27T03:32:02;99065.63;;;13.78;100.00
51239;BME280;38154;47.548;18.828;2023-05-27T03:34:28;99072.63;;;13.78;100.00
51239;BME280;38154;47.548;18.828;2023-05-27T03:36:54;99068.28;;;13.75;100.00
51239;BME280;38154;47.548;18.828;2023-05-27T03:39:20;99069.09;;;13.85;100.00
51239;BME280;38154;47.548;18.828;2023-05-27T03:41:46;99067.19;;;14.01;100.00
51239;BME280;38154;47.548;18.828;2023-05-27T03:44:12;99067.97;;;14.17;100.00
51239;BME280;38154;47.548;18.828;2023-05-27T03:46:38;99066.00;;;14.40;100.00
51239;BME280;38154;47.548;18.828;2023-05-27T03:49:04;99062.34;;;14.60;100.00
51239;BME280;38154;47.548;18.828;2023-05-27T03:51:30;99068.28;;;14.77;100.00
51239;BME280;38154;47.548;18.828;2023-05-27T03:53:56;99064.59;;;14.94;100.00
51239;BME280;38154;47.548;18.828;2023-05-27T03:56:22;99061.66;;;15.18;100.00
51239;BME280;38154;47.548;18.828;2023-05-27T03:58:49;99070.25;;;15.30;100.00
51239;BME280;38154;47.548;18.828;2023-05-27T04:01:15;99073.53;;;15.49;100.00
51239;BME280;38154;47.548;18.828;2023-05-27T04:03:42;99072.44;;;15.65;100.00
51239;BME280;38154;47.548;18.828;2023-05-27T04:06:09;99073.16;;;15.76;100.00
51239;BME280;38154;47.548;18.828;2023-05-27T04:08:35;99079.81;;;15.99;100.00
51239;BME280;38154;47.548;18.828;2023-05-27T04:11:01;99089.03;;;16.25;100.00
51239;BME280;38154;47.548;18.828;2023-05-27T04:13:28;99086.16;;;16.40;100.00
51239;BME280;38154;47.548;18.828;2023-05-27T04:15:54;99081.22;;;16.70;100.00
51239;BME280;38154;47.548;18.828;2023-05-27T04:18:22;99076.75;;;16.75;100.00
51239;BME280;38154;47.548;18.828;2023-05-27T04:20:48;99070.56;;;16.78;100.00
51239;BME280;38154;47.548;18.828;2023-05-27T04:23:16;99087.94;;;16.90;100.00
51239;BME280;38154;47.548;18.828;2023-05-27T04:25:42;99080.75;;;16.98;100.00
51239;BME280;38154;47.548;18.828;2023-05-27T04:28:08;99075.09;;;17.16;100.00
51239;BME280;38154;47.548;18.828;2023-05-27T04:30:34;99084.53;;;17.28;100.00
51239;BME280;38154;47.548;18.828;2023-05-27T04:33:02;99085.28;;;17.33;100.00
51239;BME280;38154;47.548;18.828;2023-05-27T04:35:28;99088.34;;;17.54;100.00
51239;BME280;38154;47.548;18.828;2023-05-27T04:37:57;99090.28;;;17.85;100.00
51239;BME280;38154;47.548;18.828;2023-05-27T04:40:24;99086.25;;;18.09;100.00
51239;BME280;38154;47.548;18.828;2023-05-27T04:42:50;99097.97;;;18.33;100.00
51239;BME280;38154;47.548;18.828;2023-05-27T04:45:17;99097.22;;;18.28;100.00
51239;BME280;38154;47.548;18.828;2023-05-27T04:47:44;99096.66;;;18.15;100.00
51239;BME280;38154;47.548;18.828;2023-05-27T04:50:10;99094.03;;;18.15;100.00
51239;BME280;38154;47.548;18.828;2023-05-27T04:52:36;99096.53;;;18.20;100.00
51239;BME280;38154;47.548;18.828;2023-05-27T04:55:08;99103.66;;;18.16;100.00
51239;BME280;38154;47.548;18.828;2023-05-27T04:57:35;99105.75;;;18.39;100.00
51239;BME280;38154;47.548;18.828;2023-05-27T05:00:03;99116.81;;;18.53;100.00
51239;BME280;38154;47.548;18.828;2023-05-27T05:02:30;99117.78;;;18.49;100.00
51239;BME280;38154;47.548;18.828;2023-05-27T05:05:07;99119.66;;;18.46;100.00
51239;BME280;38154;47.548;18.828;2023-05-27T05:07:34;99116.41;;;18.34;100.00
51239;BME280;38154;47.548;18.828;2023-05-27T05:10:04;99116.50;;;18.30;100.00
51239;BME280;38154;47.548;18.828;2023-05-27T05:12:30;99114.09;;;18.57;100.00
51239;BME280;38154;47.548;18.828;2023-05-27T05:14:57;99121.69;;;19.03;100.00
51239;BME280;38154;47.548;18.828;2023-05-27T05:17:23;99119.91;;;19.35;98.29
51239;BME280;38154;47.548;18.828;2023-05-27T05:19:50;99128.62;;;19.98;95.20
51239;BME280;38154;47.548;18.828;2023-05-27T05:22:16;99126.44;;;20.39;91.04
51239;BME280;38154;47.548;18.828;2023-05-27T05:24:45;99120.62;;;20.82;89.70
51239;BME280;38154;47.548;18.828;2023-05-27T05:27:11;99128.22;;;20.91;85.39
51239;BME280;38154;47.548;18.828;2023-05-27T05:29:38;99128.66;;;21.04;83.66
51239;BME280;38154;47.548;18.828;2023-05-27T05:32:04;99127.88;;;21.02;85.24
51239;BME280;38154;47.548;18.828;2023-05-27T05:34:30;99128.97;;;21.20;81.23
51239;BME280;38154;47.548;18.828;2023-05-27T05:36:56;99130.56;;;21.25;80.42
51239;BME280;38154;47.548;18.828;2023-05-27T05:39:22;99133.94;;;21.54;82.32
51239;BME280;38154;47.548;18.828;2023-05-27T05:41:48;99129.91;;;21.90;77.88
51239;BME280;38154;47.548;18.828;2023-05-27T05:44:15;99131.87;;;21.84;78.91
51239;BME280;38154;47.548;18.828;2023-05-27T05:46:41;99140.47;;;22.13;76.62
51239;BME280;38154;47.548;18.828;2023-05-27T05:49:07;99134.38;;;22.11;73.49
51239;BME280;38154;47.548;18.828;2023-05-27T05:51:33;99143.69;;;21.99;74.58
51239;BME280;38154;47.548;18.828;2023-05-27T05:53:59;99149.47;;;21.40;78.75
51239;BME280;38154;47.548;18.828;2023-05-27T05:56:25;99155.44;;;20.96;81.50
51239;BME280;38154;47.548;18.828;2023-05-27T05:58:54;99152.41;;;20.55;80.47
51239;BME280;38154;47.548;18.828;2023-05-27T06:01:20;99156.13;;;19.94;82.34
51239;BME280;38154;47.548;18.828;2023-05-27T06:03:46;99154.03;;;19.76;85.52
51239;BME280;38154;47.548;18.828;2023-05-27T06:06:12;99159.34;;;19.74;86.26
51239;BME280;38154;47.548;18.828;2023-05-27T06:08:38;99162.66;;;19.51;87.80
51239;BME280;38154;47.548;18.828;2023-05-27T06:11:04;99166.44;;;19.42;88.44
51239;BME280;38154;47.548;18.828;2023-05-27T06:13:29;99170.59;;;19.51;84.29
51239;BME280;38154;47.548;18.828;2023-05-27T06:15:55;99169.25;;;19.68;83.99
51239;BME280;38154;47.548;18.828;2023-05-27T06:18:21;99171.47;;;20.11;84.60
51239;BME280;38154;47.548;18.828;2023-05-27T06:20:47;99180.78;;;21.05;78.34
51239;BME280;38154;47.548;18.828;2023-05-27T06:23:13;99180.94;;;21.74;74.26
51239;BME280;38154;47.548;18.828;2023-05-27T06:25:39;99181.91;;;22.41;68.16
51239;BME280;38154;47.548;18.828;2023-05-27T06:28:05;99184.53;;;22.19;66.94
51239;BME280;38154;47.548;18.828;2023-05-27T06:30:32;99186.88;;;21.81;67.82
51239;BME280;38154;47.548;18.828;2023-05-27T06:32:58;99191.22;;;21.35;58.35
51239;BME280;38154;47.548;18.828;2023-05-27T06:35:24;99191.09;;;21.12;58.78
51239;BME280;38154;47.548;18.828;2023-05-27T06:37:50;99194.34;;;20.96;57.08
51239;BME280;38154;47.548;18.828;2023-05-27T06:40:15;99210.59;;;21.11;58.30
51239;BME280;38154;47.548;18.828;2023-05-27T06:42:42;99197.47;;;21.59;58.99
51239;BME280;38154;47.548;18.828;2023-05-27T06:45:09;99198.59;;;21.99;55.95
51239;BME280;38154;47.548;18.828;2023-05-27T06:47:35;99205.16;;;22.12;54.26
51239;BME280;38154;47.548;18.828;2023-05-27T06:50:01;99197.47;;;22.50;51.84
51239;BME280;38154;47.548;18.828;2023-05-27T06:52:27;99205.34;;;22.96;52.62
51239;BME280;38154;47.548;18.828;2023-05-27T06:54:52;99207.75;;;25.46;48.48
51239;BME280;38154;47.548;18.828;2023-05-27T06:57:18;99214.97;;;26.27;42.56
51239;BME280;38154;47.548;18.828;2023-05-27T06:59:44;99214.63;;;25.34;42.44
51239;BME280;38154;47.548;18.828;2023-05-27T07:02:10;99219.38;;;24.93;44.40
51239;BME280;38154;47.548;18.828;2023-05-27T07:04:36;99212.47;;;24.52;46.34
51239;BME280;38154;47.548;18.828;2023-05-27T07:07:02;99207.81;;;24.57;45.76
51239;BME280;38154;47.548;18.828;2023-05-27T07:09:28;99216.31;;;25.86;42.03
51239;BME280;38154;47.548;18.828;2023-05-27T07:11:54;99217.44;;;26.78;39.99
51239;BME280;38154;47.548;18.828;2023-05-27T07:14:20;99211.72;;;25.72;40.99
51239;BME280;38154;47.548;18.828;2023-05-27T07:16:46;99214.78;;;25.31;40.27
51239;BME280;38154;47.548;18.828;2023-05-27T07:19:13;99215.94;;;24.91;41.76
51239;BME280;38154;47.548;18.828;2023-05-27T07:21:38;99213.16;;;24.38;42.15
51239;BME280;38154;47.548;18.828;2023-05-27T07:24:04;99211.69;;;25.22;41.37
51239;BME280;38154;47.548;18.828;2023-05-27T07:26:31;99223.84;;;26.27;38.45
51239;BME280;38154;47.548;18.828;2023-05-27T07:28:58;99213.25;;;25.43;38.82
51239;BME280;38154;47.548;18.828;2023-05-27T07:31:26;99212.78;;;25.00;41.36
51239;BME280;38154;47.548;18.828;2023-05-27T07:33:53;99211.03;;;24.64;39.87
51239;BME280;38154;47.548;18.828;2023-05-27T07:36:19;99217.66;;;25.44;40.81
51239;BME280;38154;47.548;18.828;2023-05-27T07:38:45;99213.97;;;25.47;39.01
51239;BME280;38154;47.548;18.828;2023-05-27T07:41:13;99212.00;;;24.44;41.19
51239;BME280;38154;47.548;18.828;2023-05-27T07:43:39;99209.88;;;23.95;43.15
51239;BME280;38154;47.548;18.828;2023-05-27T07:46:05;99209.88;;;23.75;43.00
51239;BME280;38154;47.548;18.828;2023-05-27T07:48:31;99207.34;;;23.92;43.55
51239;BME280;38154;47.548;18.828;2023-05-27T07:50:57;99221.81;;;24.05;45.77
51239;BME280;38154;47.548;18.828;2023-05-27T07:53:23;99216.03;;;24.15;43.24
51239;BME280;38154;47.548;18.828;2023-05-27T07:55:49;99207.87;;;23.80;43.30
51239;BME280;38154;47.548;18.828;2023-05-27T07:58:15;99212.03;;;24.61;45.67
51239;BME280;38154;47.548;18.828;2023-05-27T08:00:41;99223.72;;;25.81;45.83
51239;BME280;38154;47.548;18.828;2023-05-27T08:03:07;99216.03;;;26.24;43.76
51239;BME280;38154;47.548;18.828;2023-05-27T08:05:33;99225.63;;;25.62;39.76
51239;BME280;38154;47.548;18.828;2023-05-27T08:07:59;99218.81;;;25.04;43.14
51239;BME280;38154;47.548;18.828;2023-05-27T08:10:26;99218.63;;;24.35;47.99
51239;BME280;38154;47.548;18.828;2023-05-27T08:12:52;99207.84;;;24.19;43.81
51239;BME280;38154;47.548;18.828;2023-05-27T08:15:18;99213.22;;;24.18;45.79
51239;BME280;38154;47.548;18.828;2023-05-27T08:17:44;99212.84;;;24.44;44.02
51239;BME280;38154;47.548;18.828;2023-05-27T08:20:10;99213.50;;;24.69;45.05
51239;BME280;38154;47.548;18.828;2023-05-27T08:22:37;99206.72;;;24.61;49.42
51239;BME280;38154;47.548;18.828;2023-05-27T08:25:02;99205.63;;;24.83;52.87
51239;BME280;38154;47.548;18.828;2023-05-27T08:27:54;99203.84;;;25.01;52.44
51239;BME280;38154;47.548;18.828;2023-05-27T08:30:22;99203.09;;;26.95;47.89
51239;BME280;38154;47.548;18.828;2023-05-27T08:32:48;99206.44;;;29.50;41.38
51239;BME280;38154;47.548;18.828;2023-05-27T08:35:14;99215.44;;;30.74;37.30
51239;BME280;38154;47.548;18.828;2023-05-27T08:37:40;99217.81;;;31.84;31.98
51239;BME280;38154;47.548;18.828;2023-05-27T08:40:12;99220.41;;;32.08;31.91
51239;BME280;38154;47.548;18.828;2023-05-27T08:42:39;99220.19;;;30.46;33.26
51239;BME280;38154;47.548;18.828;2023-05-27T08:45:07;99220.19;;;29.19;35.22
51239;BME280;38154;47.548;18.828;2023-05-27T08:47:33;99223.66;;;28.67;36.69
51239;BME280;38154;47.548;18.828;2023-05-27T08:49:59;99220.00;;;30.37;31.82
51239;BME280;38154;47.548;18.828;2023-05-27T08:52:27;99206.50;;;30.00;31.72
51239;BME280;38154;47.548;18.828;2023-05-27T08:54:54;99215.50;;;28.27;34.69
51239;BME280;38154;47.548;18.828;2023-05-27T08:57:25;99212.78;;;28.00;36.11
51239;BME280;38154;47.548;18.828;2023-05-27T08:59:53;99215.47;;;29.49;32.13
51239;BME280;38154;47.548;18.828;2023-05-27T09:02:20;99215.47;;;29.87;32.63
51239;BME280;38154;47.548;18.828;2023-05-27T09:04:47;99219.78;;;29.51;33.40
51239;BME280;38154;47.548;18.828;2023-05-27T09:07:14;99210.16;;;28.68;33.61
51239;BME280;38154;47.548;18.828;2023-05-27T09:09:40;99210.72;;;28.32;35.75
51239;BME280;38154;47.548;18.828;2023-05-27T09:12:06;99212.69;;;28.01;35.29
51239;BME280;38154;47.548;18.828;2023-05-27T09:14:35;99210.47;;;27.65;35.79
51239;BME280;38154;47.548;18.828;2023-05-27T09:17:07;99207.87;;;27.63;37.98
51239;BME280;38154;47.548;18.828;2023-05-27T09:19:33;99217.94;;;28.99;36.82
51239;BME280;38154;47.548;18.828;2023-05-27T09:21:59;99209.78;;;30.42;33.73
51239;BME280;38154;47.548;18.828;2023-05-27T09:24:26;99214.06;;;32.41;30.34
51239;BME280;38154;47.548;18.828;2023-05-27T09:26:53;99219.56;;;33.27;30.08
51239;BME280;38154;47.548;18.828;2023-05-27T09:29:19;99213.97;;;34.52;26.83
51239;BME280;38154;47.548;18.828;2023-05-27T09:31:45;99221.53;;;35.46;25.29
51239;BME280;38154;47.548;18.828;2023-05-27T09:34:12;99212.91;;;36.08;24.70
51239;BME280;38154;47.548;18.828;2023-05-27T09:36:43;99211.41;;;35.95;26.56
51239;BME280;38154;47.548;18.828;2023-05-27T09:39:10;99220.09;;;36.54;25.25
51239;BME280;38154;47.548;18.828;2023-05-27T09:41:38;99211.31;;;36.97;22.69
51239;BME280;38154;47.548;18.828;2023-05-27T09:44:04;99218.56;;;36.24;23.46
51239;BME280;38154;47.548;18.828;2023-05-27T09:46:34;99214.59;;;34.95;24.71
51239;BME280;38154;47.548;18.828;2023-05-27T09:49:01;99217.13;;;35.16;26.19
51239;BME280;38154;47.548;18.828;2023-05-27T09:51:29;99209.34;;;33.82;26.33
51239;BME280;38154;47.548;18.828;2023-05-27T09:53:55;99207.63;;;32.76;27.06
51239;BME280;38154;47.548;18.828;2023-05-27T09:56:26;99199.47;;;32.44;28.84
51239;BME280;38154;47.548;18.828;2023-05-27T09:58:56;99202.84;;;33.01;28.83
51239;BME280;38154;47.548;18.828;2023-05-27T10:01:28;99213.22;;;34.30;26.63
51239;BME280;38154;47.548;18.828;2023-05-27T10:03:55;99215.81;;;35.49;25.66
51239;BME280;38154;47.548;18.828;2023-05-27T10:06:25;99209.00;;;35.35;24.39
51239;BME280;38154;47.548;18.828;2023-05-27T10:08:55;99207.91;;;35.75;23.71
51239;BME280;38154;47.548;18.828;2023-05-27T10:11:24;99208.47;;;35.69;22.34
51239;BME280;38154;47.548;18.828;2023-05-27T10:13:53;99203.81;;;34.25;24.25
51239;BME280;38154;47.548;18.828;2023-05-27T10:16:20;99196.28;;;33.67;25.80
51239;BME280;38154;47.548;18.828;2023-05-27T10:18:47;99192.78;;;33.24;26.58
51239;BME280;38154;47.548;18.828;2023-05-27T10:21:19;99175.34;;;33.59;26.21
51239;BME280;38154;47.548;18.828;2023-05-27T10:23:59;99179.50;;;32.46;28.79
51239;BME280;38154;47.548;18.828;2023-05-27T10:26:35;99173.84;;;33.45;27.79
51239;BME280;38154;47.548;18.828;2023-05-27T10:29:12;99172.16;;;33.23;26.67
51239;BME280;38154;47.548;18.828;2023-05-27T10:31:51;99176.63;;;33.86;27.27
51239;BME280;38154;47.548;18.828;2023-05-27T10:34:17;99182.50;;;34.00;26.44
51239;BME280;38154;47.548;18.828;2023-05-27T10:36:45;99181.06;;;35.15;23.69
51239;BME280;38154;47.548;18.828;2023-05-27T10:39:16;99189.44;;;35.89;23.33
51239;BME280;38154;47.548;18.828;2023-05-27T10:44:10;99184.75;;;35.04;24.54
51239;BME280;38154;47.548;18.828;2023-05-27T10:46:40;99174.53;;;34.79;24.62
51239;BME280;38154;47.548;18.828;2023-05-27T10:49:12;99182.22;;;35.03;23.68
51239;BME280;38154;47.548;18.828;2023-05-27T10:51:39;99176.81;;;34.93;25.65
51239;BME280;38154;47.548;18.828;2023-05-27T10:54:05;99170.53;;;34.03;25.17
51239;BME280;38154;47.548;18.828;2023-05-27T10:56:32;99170.78;;;34.31;24.69
51239;BME280;38154;47.548;18.828;2023-05-27T10:59:01;99166.00;;;33.00;26.30
51239;BME280;38154;47.548;18.828;2023-05-27T11:01:31;99172.00;;;33.03;27.51
51239;BME280;38154;47.548;18.828;2023-05-27T11:03:59;99163.34;;;32.67;26.13
51239;BME280;38154;47.548;18.828;2023-05-27T11:06:25;99169.16;;;32.08;27.71
51239;BME280;38154;47.548;18.828;2023-05-27T11:08:50;99161.16;;;31.50;28.50
51239;BME280;38154;47.548;18.828;2023-05-27T11:11:16;99165.06;;;31.91;28.19
51239;BME280;38154;47.548;18.828;2023-05-27T11:13:45;99166.78;;;32.90;26.93
51239;BME280;38154;47.548;18.828;2023-05-27T11:16:12;99163.34;;;33.09;26.25
51239;BME280;38154;47.548;18.828;2023-05-27T11:18:46;99171.44;;;33.73;27.37
51239;BME280;38154;47.548;18.828;2023-05-27T11:21:14;99159.41;;;32.60;27.74
51239;BME280;38154;47.548;18.828;2023-05-27T11:23:47;99154.78;;;32.62;26.92
51239;BME280;38154;47.548;18.828;2023-05-27T11:28:51;99153.56;;;31.43;30.97
51239;BME280;38154;47.548;18.828;2023-05-27T11:31:17;99154.72;;;30.70;32.65
51239;BME280;38154;47.548;18.828;2023-05-27T11:33:49;99150.19;;;29.72;32.79
51239;BME280;38154;47.548;18.828;2023-05-27T11:36:15;99148.69;;;29.04;34.14
51239;BME280;38154;47.548;18.828;2023-05-27T11:41:14;99139.53;;;27.85;35.95
51239;BME280;38154;47.548;18.828;2023-05-27T11:43:52;99149.81;;;28.34;34.60
51239;BME280;38154;47.548;18.828;2023-05-27T11:46:18;99148.47;;;29.07;34.04
51239;BME280;38154;47.548;18.828;2023-05-27T11:48:44;99142.19;;;29.47;34.70
51239;BME280;38154;47.548;18.828;2023-05-27T11:51:10;99146.50;;;29.99;33.72
51239;BME280;38154;47.548;18.828;2023-05-27T11:53:46;99140.50;;;30.20;34.77
51239;BME280;38154;47.548;18.828;2023-05-27T11:56:13;99144.00;;;29.20;35.34
51239;BME280;38154;47.548;18.828;2023-05-27T11:58:39;99139.66;;;28.79;35.84
51239;BME280;38154;47.548;18.828;2023-05-27T12:01:05;99136.12;;;28.24;36.55
51239;BME280;38154;47.548;18.828;2023-05-27T12:03:33;99136.12;;;27.97;36.52
51239;BME280;38154;47.548;18.828;2023-05-27T12:05:59;99124.13;;;27.88;37.29
51239;BME280;38154;47.548;18.828;2023-05-27T12:08:25;99128.31;;;27.51;40.29
51239;BME280;38154;47.548;18.828;2023-05-27T12:10:51;99128.16;;;27.09;41.83
51239;BME280;38154;47.548;18.828;2023-05-27T12:13:22;99122.69;;;26.36;43.67
51239;BME280;38154;47.548;18.828;2023-05-27T12:15:49;99123.22;;;25.79;46.18
51239;BME280;38154;47.548;18.828;2023-05-27T12:18:16;99127.13;;;25.40;46.95
51239;BME280;38154;47.548;18.828;2023-05-27T12:20:44;99124.37;;;25.24;48.12
51239;BME280;38154;47.548;18.828;2023-05-27T12:23:10;99128.09;;;25.21;49.82
51239;BME280;38154;47.548;18.828;2023-05-27T12:25:36;99130.00;;;25.19;48.63
51239;BME280;38154;47.548;18.828;2023-05-27T12:28:01;99126.41;;;25.03;50.83
51239;BME280;38154;47.548;18.828;2023-05-27T12:30:28;99118.56;;;24.99;49.91
51239;BME280;38154;47.548;18.828;2023-05-27T12:32:54;99123.41;;;25.09;49.84
51239;BME280;38154;47.548;18.828;2023-05-27T12:35:20;99128.75;;;25.09;49.40
51239;BME280;38154;47.548;18.828;2023-05-27T12:37:46;99125.03;;;25.29;48.01
51239;BME280;38154;47.548;18.828;2023-05-27T12:40:12;99123.09;;;25.48;48.63
51239;BME280;38154;47.548;18.828;2023-05-27T12:42:41;99121.62;;;25.43;47.77
51239;BME280;38154;47.548;18.828;2023-05-27T12:45:10;99115.94;;;25.49;48.47
51239;BME280;38154;47.548;18.828;2023-05-27T12:47:37;99116.66;;;25.52;45.71
51239;BME280;38154;47.548;18.828;2023-05-27T12:50:03;99108.28;;;25.59;46.47
51239;BME280;38154;47.548;18.828;2023-05-27T12:52:30;99116.16;;;25.78;47.17
51239;BME280;38154;47.548;18.828;2023-05-27T12:54:56;99102.91;;;26.08;47.35